createdAt,value
2023-03-17T00:02:13.235Z,100771.60
2023-03-17T00:07:18.456Z,100764.14
2023-03-17T00:12:21.869Z,100762.95
2023-03-17T00:17:25.387Z,100759.61
2023-03-17T00:22:29.005Z,100757.20
2023-03-17T00:27:33.341Z,100761.20
2023-03-17T00:32:37.898Z,100753.77
2023-03-17T00:37:41.906Z,100746.46
2023-03-17T00:42:46.361Z,100746.84
2023-03-17T00:47:51.629Z,100751.80
2023-03-17T00:52:57.143Z,100751.11
2023-03-17T00:58:00.871Z,100747.35
2023-03-17T01:03:04.177Z,100749.90
2023-03-17T01:08:09.383Z,100752.00
2023-03-17T01:13:13.977Z,100753.59
2023-03-17T01:18:19.948Z,100752.60
2023-03-17T01:23:23.358Z,100753.64
2023-03-17T01:28:26.566Z,100760.02
2023-03-17T01:33:29.990Z,100756.59
2023-03-17T01:38:33.303Z,100752.13
2023-03-17T01:43:36.919Z,100747.66
2023-03-17T01:48:51.591Z,100750.48
2023-03-17T01:53:56.025Z,100743.84
2023-03-17T01:59:05.992Z,100749.36
2023-03-17T02:04:11.522Z,100753.63
2023-03-17T02:09:14.969Z,100755.28
2023-03-17T02:14:18.284Z,100752.96
2023-03-17T02:19:21.895Z,100756.08
2023-03-17T02:24:32.378Z,100760.73
2023-03-17T02:29:38.005Z,100763.38
2023-03-17T02:34:41.356Z,100758.95
2023-03-17T02:39:44.782Z,100758.59
2023-03-17T02:44:48.794Z,100763.62
2023-03-17T02:49:52.833Z,100763.31
2023-03-17T02:54:56.444Z,100765.33
2023-03-17T02:59:59.753Z,100757.27
2023-03-17T03:05:03.884Z,100758.20
2023-03-17T03:10:07.916Z,100753.07
2023-03-17T03:15:11.895Z,100758.90
2023-03-17T03:20:15.149Z,100760.13
2023-03-17T03:25:18.765Z,100760.98
2023-03-17T03:30:21.972Z,100758.73
2023-03-17T03:47:09.491Z,100732.81
2023-03-17T03:52:12.699Z,100732.18
2023-03-17T03:57:16.986Z,100733.73
2023-03-17T04:02:20.591Z,100737.46
2023-03-17T04:07:24.370Z,100741.41
2023-03-17T04:12:27.681Z,100742.20
2023-03-17T04:17:30.898Z,100737.61
2023-03-17T04:22:34.813Z,100746.94
2023-03-17T04:27:38.534Z,100739.66
2023-03-17T04:32:42.134Z,100733.23
2023-03-17T04:37:46.183Z,100740.13
2023-03-17T04:42:49.398Z,100742.83
2023-03-17T04:47:52.705Z,100751.67
2023-03-17T04:52:56.009Z,100751.67
2023-03-17T04:57:59.221Z,100748.41
2023-03-17T05:03:02.428Z,100749.80
2023-03-17T05:08:06.013Z,100752.66
2023-03-17T05:13:09.256Z,100751.95
2023-03-17T05:18:12.538Z,100754.41
2023-03-17T05:23:15.874Z,100748.58
2023-03-17T05:28:21.134Z,100752.20
2023-03-17T05:33:24.851Z,100749.84
2023-03-17T05:38:28.513Z,100749.11
2023-03-17T05:43:31.982Z,100755.77
2023-03-17T05:48:35.705Z,100759.23
2023-03-17T05:53:38.896Z,100756.33
2023-03-17T05:58:42.080Z,100751.02
2023-03-17T06:03:45.325Z,100749.97
2023-03-17T06:08:48.642Z,100763.16
2023-03-17T06:13:51.955Z,100765.52
2023-03-17T06:18:55.117Z,100769.56
2023-03-17T06:23:58.728Z,100793.09
2023-03-17T06:29:02.498Z,100784.30
2023-03-17T06:34:06.017Z,100779.97
2023-03-17T06:39:09.839Z,100784.26
2023-03-17T06:44:13.459Z,100794.16
2023-03-17T06:49:17.072Z,100786.63
2023-03-17T06:54:21.622Z,100775.59
2023-03-17T06:59:25.332Z,100779.47
2023-03-17T07:04:28.676Z,100790.04
2023-03-17T07:09:35.846Z,100782.29
2023-03-17T07:14:39.359Z,100775.41
2023-03-17T07:19:43.181Z,100777.25
2023-03-17T07:24:49.395Z,100776.64
2023-03-17T07:29:53.491Z,100780.52
2023-03-17T07:34:57.441Z,100779.40
2023-03-17T07:40:00.726Z,100783.05
2023-03-17T07:45:06.285Z,100781.48
2023-03-17T07:50:11.126Z,100780.54
2023-03-17T07:55:14.345Z,100786.36
2023-03-17T08:00:18.163Z,100793.70
2023-03-17T08:05:22.089Z,100794.50
2023-03-17T08:10:25.705Z,100791.02
2023-03-17T08:15:31.206Z,100788.89
2023-03-17T08:20:35.140Z,100788.05
2023-03-17T08:25:39.038Z,100790.70
2023-03-17T08:30:44.876Z,100787.55
2023-03-17T08:35:48.514Z,100784.29
2023-03-17T08:40:52.552Z,100780.55
2023-03-17T08:46:14.215Z,100776.85
2023-03-17T08:51:20.837Z,100772.92
2023-03-17T08:56:25.715Z,100771.71
2023-03-17T09:01:29.249Z,100777.83
2023-03-17T09:06:32.847Z,100775.56
2023-03-17T09:11:36.162Z,100772.92
2023-03-17T09:16:39.468Z,100774.80
2023-03-17T09:21:42.989Z,100780.18
2023-03-17T09:26:46.296Z,100774.25
2023-03-17T09:31:49.507Z,100766.77
2023-03-17T09:36:56.398Z,100755.14
2023-03-17T09:42:15.792Z,100756.45
2023-03-17T09:47:54.158Z,100754.86
2023-03-17T09:52:58.780Z,100747.67
2023-03-17T09:58:03.704Z,100733.90
2023-03-17T10:03:11.412Z,100731.27
2023-03-17T10:08:32.441Z,100737.84
2023-03-17T10:13:58.391Z,100734.28
2023-03-17T10:19:21.974Z,100726.58
2023-03-17T10:24:27.359Z,100729.98
2023-03-17T10:29:32.710Z,100727.79
2023-03-17T10:34:38.262Z,100715.46
2023-03-17T10:40:11.666Z,100707.84
2023-03-17T10:45:22.359Z,100696.33
2023-03-17T10:50:34.916Z,100695.69
2023-03-17T10:55:38.295Z,100685.17
2023-03-17T11:01:03.788Z,100676.13
2023-03-17T11:06:10.913Z,100677.41
2023-03-17T11:11:35.764Z,100675.92
2023-03-17T11:16:42.608Z,100674.45
2023-03-17T11:22:00.097Z,100672.87
2023-03-17T11:27:16.103Z,100664.23
2023-03-17T11:32:31.753Z,100652.42
2023-03-17T11:37:49.337Z,100641.98
2023-03-17T11:43:01.358Z,100636.18
2023-03-17T11:48:21.664Z,100633.33
2023-03-17T11:54:02.244Z,100632.08
2023-03-17T11:59:35.456Z,100625.01
2023-03-17T12:04:55.972Z,100617.31
2023-03-17T12:10:26.720Z,100618.34
2023-03-17T12:15:38.152Z,100614.05
2023-03-17T12:20:54.541Z,100605.02
2023-03-17T12:26:07.269Z,100587.21
2023-03-17T12:31:18.703Z,100577.23
2023-03-17T12:36:23.064Z,100567.59
2023-03-17T12:41:49.354Z,100557.89
2023-03-17T12:47:07.205Z,100550.52
2023-03-17T12:52:34.067Z,100555.89
2023-03-17T12:57:48.120Z,100546.59
2023-03-17T13:03:23.809Z,100524.45
2023-03-17T13:08:33.768Z,100529.21
2023-03-17T13:13:55.729Z,100530.77
2023-03-17T13:19:19.810Z,100531.55
2023-03-17T13:24:36.336Z,100530.91
2023-03-17T13:29:43.559Z,100528.67
2023-03-17T13:34:56.161Z,100521.66
2023-03-17T13:40:10.842Z,100518.13
2023-03-17T13:45:37.703Z,100507.52
2023-03-17T13:50:43.195Z,100509.98
2023-03-17T13:56:09.386Z,100509.70
2023-03-17T14:01:14.433Z,100511.52
2023-03-17T14:06:20.055Z,100516.35
2023-03-17T14:11:33.892Z,100512.29
2023-03-17T14:16:45.245Z,100509.31
2023-03-17T14:21:48.805Z,100509.70
2023-03-17T14:26:53.344Z,100507.35
2023-03-17T14:32:12.319Z,100506.99
2023-03-17T14:37:15.735Z,100511.25
2023-03-17T14:42:31.256Z,100501.66
2023-03-17T14:47:41.914Z,100494.05
2023-03-17T14:52:45.652Z,100490.56
2023-03-17T14:57:52.024Z,100488.23
2023-03-17T15:02:57.081Z,100497.23
2023-03-17T15:08:00.900Z,100503.44
2023-03-17T15:13:06.485Z,100501.98
2023-03-17T15:18:14.175Z,100488.98
2023-03-17T15:23:23.840Z,100488.73
2023-03-17T15:28:31.681Z,100493.27
2023-03-17T15:33:40.716Z,100493.41
2023-03-17T15:38:44.009Z,100491.41
2023-03-17T15:43:47.943Z,100472.56
2023-03-17T15:48:51.651Z,100456.48
2023-03-17T15:53:54.979Z,100444.73
2023-03-17T15:58:58.168Z,100442.31
2023-03-17T16:04:02.248Z,100441.39
2023-03-17T16:09:13.896Z,100438.86
2023-03-17T16:14:17.317Z,100444.33
2023-03-17T16:19:24.716Z,100445.84
2023-03-17T16:24:28.642Z,100443.74
2023-03-17T16:29:31.853Z,100438.85
2023-03-17T16:34:35.164Z,100440.63
2023-03-17T16:39:38.472Z,100435.98
2023-03-17T16:44:41.824Z,100433.52
2023-03-17T16:49:45.104Z,100427.74
2023-03-17T16:54:49.334Z,100421.08
2023-03-17T16:59:53.153Z,100415.90
2023-03-17T17:04:56.284Z,100408.94
2023-03-17T17:09:59.466Z,100407.62
2023-03-17T17:15:02.776Z,100409.62
2023-03-17T17:20:20.134Z,100411.80
2023-03-17T17:25:24.444Z,100415.61
2023-03-17T17:30:29.725Z,100413.17
2023-03-17T17:35:33.723Z,100414.80
2023-03-17T17:40:37.673Z,100413.08
2023-03-17T17:45:42.451Z,100418.26
2023-03-17T17:50:46.531Z,100417.32
2023-03-17T17:55:50.769Z,100419.41
2023-03-17T18:00:57.293Z,100410.61
2023-03-17T18:06:01.391Z,100405.21
2023-03-17T18:11:04.695Z,100402.06
2023-03-17T18:16:10.202Z,100403.61
2023-03-17T18:21:13.875Z,100397.33
2023-03-17T18:26:18.537Z,100393.17
2023-03-17T18:31:40.440Z,100389.42
2023-03-17T18:36:46.965Z,100396.59
2023-03-17T18:41:50.571Z,100393.55
2023-03-17T18:46:53.927Z,100390.54
2023-03-17T18:51:59.658Z,100385.54
2023-03-17T18:57:03.055Z,100386.27
2023-03-17T19:02:07.039Z,100388.27
2023-03-17T19:07:10.302Z,100388.25
2023-03-17T19:12:14.390Z,100393.64
2023-03-17T19:17:18.357Z,100395.65
2023-03-17T19:22:21.553Z,100389.63
2023-03-17T19:27:24.890Z,100389.23
2023-03-17T19:32:29.455Z,100389.28
2023-03-17T19:37:32.713Z,100388.42
2023-03-17T19:42:36.651Z,100389.73
2023-03-17T19:47:40.984Z,100389.98
2023-03-17T19:52:46.265Z,100396.33
2023-03-17T19:57:49.545Z,100385.44
2023-03-17T20:02:53.766Z,100386.35
2023-03-17T20:07:57.392Z,100388.26
2023-03-17T20:13:00.725Z,100384.90
2023-03-17T20:18:04.329Z,100383.09
2023-03-17T20:23:07.633Z,100383.86
2023-03-17T20:28:12.274Z,100387.31
2023-03-17T20:33:15.692Z,100377.15
2023-03-17T20:38:19.724Z,100373.55
2023-03-17T20:43:23.170Z,100377.54
2023-03-17T20:48:26.749Z,100378.21
2023-03-17T20:53:30.568Z,100385.57
2023-03-17T20:58:34.648Z,100383.88
2023-03-17T21:03:38.524Z,100378.61
2023-03-17T21:08:42.755Z,100373.90
2023-03-17T21:13:46.781Z,100373.88
2023-03-17T21:18:51.219Z,100370.65
2023-03-17T21:23:55.763Z,100366.71
2023-03-17T21:28:59.067Z,100364.36
2023-03-17T21:34:02.284Z,100365.25
2023-03-17T21:39:06.129Z,100351.27
2023-03-17T21:44:10.130Z,100340.81
2023-03-17T21:49:16.336Z,100333.86
2023-03-17T21:54:20.743Z,100334.05
2023-03-17T21:59:23.744Z,100332.11
2023-03-17T22:04:28.753Z,100335.66
2023-03-17T22:09:32.109Z,100337.34
2023-03-17T22:14:36.165Z,100336.19
2023-03-17T22:19:42.628Z,100339.94
2023-03-17T22:24:46.143Z,100338.08
2023-03-17T22:29:49.449Z,100334.02
2023-03-17T22:34:53.381Z,100335.33
2023-03-17T22:40:02.522Z,100330.84
2023-03-17T22:45:06.781Z,100327.35
2023-03-17T22:50:10.991Z,100331.88
2023-03-17T22:55:15.125Z,100333.45
2023-03-17T23:00:19.019Z,100337.33
2023-03-17T23:05:22.255Z,100329.12
2023-03-17T23:10:25.671Z,100327.73
2023-03-17T23:15:29.243Z,100329.59
2023-03-17T23:20:33.590Z,100331.89
2023-03-17T23:25:38.595Z,100333.44
2023-03-17T23:30:43.346Z,100327.15
2023-03-17T23:35:46.637Z,100320.09
2023-03-17T23:40:50.443Z,100315.16
2023-03-17T23:45:54.281Z,100306.33
2023-03-17T23:50:57.791Z,100304.36
2023-03-17T23:56:01.603Z,100297.98
